Time;durP1;ratioP1;P1;durP2;ratioP2;P2;SDS_P1;SDS_P2;PMS_P1;PMS_P2;Temp;Humidity;BMP_temperature;BMP_pressure;BME280_temperature;BME280_humidity;BME280_pressure;Samples;Min_cycle;Max_cycle;Signal;HPM_P1;HPM_P2
2021/12/28 00:01:14;;;;;;;30.45;23.77;;;10.10;87.00;;;;;;4971915;28;20063;-85
2021/12/28 00:03:42;;;;;;;27.48;22.48;;;10.10;87.10;;;;;;4963821;28;20038;-85
2021/12/28 00:06:09;;;;;;;32.13;23.60;;;10.10;87.20;;;;;;4960056;28;20082;-85
2021/12/28 00:08:35;;;;;;;31.98;24.85;;;10.10;87.20;;;;;;4956523;29;20086;-85
2021/12/28 00:11:02;;;;;;;29.30;23.58;;;10.10;87.30;;;;;;4938940;29;20034;-85
2021/12/28 00:13:30;;;;;;;28.90;23.38;;;10.00;87.20;;;;;;4956680;28;20074;-86
2021/12/28 00:18:22;;;;;;;28.30;23.02;;;10.10;87.30;;;;;;4956374;29;20032;-87
2021/12/28 00:20:52;;;;;;;28.83;23.65;;;10.10;87.40;;;;;;4964308;28;20031;-87
2021/12/28 00:23:22;;;;;;;26.40;22.13;;;10.10;87.40;;;;;;4975793;28;20035;-86
2021/12/28 00:25:50;;;;;;;27.85;22.83;;;10.10;87.30;;;;;;4953383;29;20086;-88
2021/12/28 00:28:16;;;;;;;29.33;23.25;;;10.10;87.40;;;;;;4939319;29;20117;-87
2021/12/28 00:30:43;;;;;;;30.95;24.05;;;10.00;87.30;;;;;;4956591;28;20106;-87
2021/12/28 00:33:08;;;;;;;28.25;23.42;;;10.00;87.30;;;;;;4963751;28;20467;-87
2021/12/28 00:35:39;;;;;;;25.23;22.13;;;10.00;87.40;;;;;;4970273;28;20097;-86
2021/12/28 00:38:06;;;;;;;28.63;23.08;;;10.00;87.50;;;;;;4949886;28;20158;-86
2021/12/28 00:40:32;;;;;;;28.65;22.55;;;10.00;87.50;;;;;;4977187;28;20050;-85
2021/12/28 00:42:59;;;;;;;26.58;22.63;;;10.00;87.50;;;;;;4954640;29;20063;-87
2021/12/28 00:45:25;;;;;;;28.52;22.33;;;10.00;87.60;;;;;;4960943;28;20035;-86
2021/12/28 00:47:51;;;;;;;27.25;22.40;;;10.00;87.60;;;;;;4972630;28;20030;-86
2021/12/28 00:50:18;;;;;;;29.20;23.23;;;10.00;87.70;;;;;;4978830;28;20035;-87
2021/12/28 00:52:45;;;;;;;27.05;22.00;;;10.00;87.70;;;;;;4959996;28;20437;-86
2021/12/28 00:55:14;;;;;;;27.67;22.55;;;9.90;87.50;;;;;;4961984;28;20070;-86
2021/12/28 00:57:39;;;;;;;27.13;22.23;;;9.90;87.50;;;;;;4968125;28;20516;-86
2021/12/28 01:00:09;;;;;;;27.77;22.05;;;9.90;87.50;;;;;;4960479;29;20039;-85
2021/12/28 01:02:35;;;;;;;26.92;21.42;;;9.90;87.70;;;;;;4974760;28;20122;-86
2021/12/28 01:05:01;;;;;;;27.23;22.13;;;9.90;87.80;;;;;;4976029;28;20035;-86
2021/12/28 01:07:27;;;;;;;28.13;22.45;;;9.80;87.80;;;;;;4979084;28;20085;-85
2021/12/28 01:09:53;;;;;;;29.83;21.13;;;9.90;87.90;;;;;;4979441;28;20395;-86
2021/12/28 01:12:19;;;;;;;27.15;22.40;;;9.80;87.80;;;;;;4965118;28;20030;-86
2021/12/28 01:14:44;;;;;;;29.95;23.33;;;9.80;87.90;;;;;;4979368;28;20039;-85
2021/12/28 01:17:10;;;;;;;30.35;23.50;;;9.80;87.80;;;;;;4972464;28;20046;-86
2021/12/28 01:19:36;;;;;;;31.50;23.83;;;9.70;88.00;;;;;;4959555;29;20039;-86
2021/12/28 01:22:03;;;;;;;26.55;23.23;;;9.70;88.00;;;;;;4959438;29;20048;-85
2021/12/28 01:24:32;;;;;;;31.92;23.77;;;9.70;88.20;;;;;;4959140;28;20129;-85
2021/12/28 01:26:58;;;;;;;30.05;23.75;;;9.60;88.20;;;;;;4974285;28;20039;-86
2021/12/28 01:29:24;;;;;;;28.38;23.88;;;9.60;88.20;;;;;;4942354;29;20042;-86
2021/12/28 01:31:50;;;;;;;32.10;24.83;;;9.60;88.30;;;;;;4950906;28;20039;-86
2021/12/28 01:34:17;;;;;;;34.05;25.80;;;9.60;88.40;;;;;;4978910;28;20495;-86
2021/12/28 01:36:43;;;;;;;32.85;25.10;;;9.60;88.50;;;;;;4959254;28;20045;-86
2021/12/28 01:39:09;;;;;;;33.35;25.70;;;9.70;88.50;;;;;;4959677;28;20043;-85
2021/12/28 01:41:35;;;;;;;33.75;26.08;;;9.70;88.40;;;;;;4941922;29;20058;-85
2021/12/28 01:44:05;;;;;;;32.63;25.88;;;9.70;88.30;;;;;;4959167;29;20094;-85
2021/12/28 01:46:31;;;;;;;32.60;25.55;;;9.70;88.30;;;;;;4958770;28;20369;-85
2021/12/28 01:48:57;;;;;;;30.85;25.35;;;9.70;88.20;;;;;;4958444;28;20055;-86
2021/12/28 01:51:24;;;;;;;35.00;27.15;;;9.70;88.10;;;;;;4959014;29;20066;-87
2021/12/28 01:53:53;;;;;;;29.40;24.00;;;9.70;88.00;;;;;;4941581;29;20508;-87
2021/12/28 01:56:22;;;;;;;33.42;25.27;;;9.60;88.00;;;;;;4958788;28;20051;-87
2021/12/28 01:58:50;;;;;;;32.25;26.55;;;9.60;87.80;;;;;;4939565;29;20036;-87
2021/12/28 02:01:16;;;;;;;35.35;27.85;;;9.50;88.20;;;;;;4951725;28;20035;-88
2021/12/28 02:03:43;;;;;;;30.80;25.42;;;9.50;88.30;;;;;;4978049;28;20445;-88
2021/12/28 02:06:10;;;;;;;37.65;27.20;;;9.60;88.30;;;;;;4978362;28;20082;-88
2021/12/28 02:08:37;;;;;;;37.20;27.83;;;9.50;88.30;;;;;;4960859;28;20377;-87
2021/12/28 02:11:03;;;;;;;31.58;25.75;;;9.50;88.30;;;;;;4974746;28;20496;-87
2021/12/28 02:13:29;;;;;;;30.95;25.42;;;9.50;88.30;;;;;;4977759;28;20039;-87
2021/12/28 02:15:56;;;;;;;33.08;26.73;;;9.50;88.50;;;;;;4978468;28;20038;-87
2021/12/28 02:18:23;;;;;;;33.50;25.92;;;9.50;88.50;;;;;;4960788;28;20058;-86
2021/12/28 02:20:50;;;;;;;34.20;26.95;;;9.50;88.40;;;;;;4942079;29;20074;-87
2021/12/28 02:23:17;;;;;;;31.27;25.90;;;9.50;88.50;;;;;;4958943;29;20094;-87
2021/12/28 02:25:43;;;;;;;32.47;25.90;;;9.60;88.50;;;;;;4973113;28;20043;-86
2021/12/28 02:28:11;;;;;;;33.03;24.25;;;9.60;88.40;;;;;;4958191;29;20035;-86
2021/12/28 02:30:40;;;;;;;31.98;25.08;;;9.60;88.30;;;;;;4958475;28;20106;-87
2021/12/28 02:33:06;;;;;;;31.63;24.90;;;9.60;88.40;;;;;;4957897;28;20110;-85
2021/12/28 02:35:33;;;;;;;31.30;24.42;;;9.60;88.60;;;;;;4958014;29;20047;-85
2021/12/28 02:37:59;;;;;;;31.17;25.13;;;9.60;88.50;;;;;;4958173;29;20086;-84
2021/12/28 02:40:28;;;;;;;29.80;24.50;;;9.60;88.50;;;;;;4972637;28;20039;-89
2021/12/28 02:42:56;;;;;;;29.25;23.25;;;9.60;88.60;;;;;;4969323;28;20404;-89
2021/12/28 02:45:28;;;;;;;27.27;22.05;;;9.60;88.40;;;;;;4958659;29;20440;-89
2021/12/28 02:47:54;;;;;;;23.80;20.85;;;9.60;88.30;;;;;;4940925;29;20035;-88
2021/12/28 02:50:26;;;;;;;27.92;22.23;;;9.60;88.40;;;;;;4959466;28;20098;-87
2021/12/28 02:52:53;;;;;;;30.52;22.67;;;9.60;88.50;;;;;;4938730;29;20036;-86
2021/12/28 02:55:22;;;;;;;26.13;21.65;;;9.60;88.60;;;;;;4957813;28;20046;-86
2021/12/28 02:58:02;;;;;;;26.92;22.38;;;9.50;88.60;;;;;;4976442;28;20565;-87
2021/12/28 03:00:34;;;;;;;26.70;21.73;;;9.50;88.60;;;;;;4949575;29;20039;-87
2021/12/28 03:03:09;;;;;;;27.83;20.67;;;9.50;88.70;;;;;;4962165;28;20541;-87
2021/12/28 03:05:36;;;;;;;26.48;21.00;;;9.60;88.90;;;;;;4977048;28;20042;-87
2021/12/28 03:08:03;;;;;;;27.13;21.35;;;9.50;88.70;;;;;;4963534;28;20038;-87
2021/12/28 03:10:29;;;;;;;25.75;20.67;;;9.60;88.80;;;;;;4958708;28;20539;-85
2021/12/28 03:12:55;;;;;;;25.00;21.27;;;9.60;88.80;;;;;;4950585;28;20043;-86
2021/12/28 03:15:21;;;;;;;25.08;20.85;;;9.60;88.70;;;;;;4965242;28;20433;-87
2021/12/28 03:17:47;;;;;;;27.90;20.98;;;9.60;88.70;;;;;;4963606;28;20121;-87
2021/12/28 03:20:14;;;;;;;24.02;19.88;;;9.60;88.70;;;;;;4962670;28;20508;-86
2021/12/28 03:22:40;;;;;;;24.63;19.55;;;9.70;88.80;;;;;;4942413;28;20045;-86
2021/12/28 03:25:07;;;;;;;23.20;19.67;;;9.70;88.80;;;;;;4976240;28;20040;-87
2021/12/28 03:27:33;;;;;;;23.90;19.15;;;9.70;88.80;;;;;;4976206;28;20054;-86
2021/12/28 03:29:58;;;;;;;23.05;19.85;;;9.70;88.70;;;;;;4962253;28;20046;-86
2021/12/28 03:32:24;;;;;;;22.35;19.35;;;9.70;88.60;;;;;;4956754;29;20042;-84
2021/12/28 03:34:50;;;;;;;22.30;19.42;;;9.80;88.50;;;;;;4960118;28;20094;-86
2021/12/28 03:37:16;;;;;;;22.48;18.17;;;9.80;88.40;;;;;;4971747;28;20092;-84
2021/12/28 03:39:41;;;;;;;23.52;18.65;;;9.80;88.30;;;;;;4976686;28;20106;-83
2021/12/28 03:42:08;;;;;;;22.83;18.98;;;9.80;88.30;;;;;;4958847;28;20137;-85
2021/12/28 03:44:35;;;;;;;21.88;18.77;;;9.80;88.20;;;;;;4961519;28;20035;-85
2021/12/28 03:47:01;;;;;;;22.02;19.40;;;9.80;88.20;;;;;;4956991;28;20438;-85
2021/12/28 03:49:26;;;;;;;22.95;19.80;;;9.80;88.20;;;;;;4957092;28;20027;-84
2021/12/28 03:51:52;;;;;;;23.85;19.08;;;9.80;88.20;;;;;;4964821;28;20127;-85
2021/12/28 03:54:18;;;;;;;22.45;18.88;;;9.80;88.20;;;;;;4972006;28;20050;-85
2021/12/28 03:56:44;;;;;;;22.05;19.15;;;9.90;88.20;;;;;;4954202;28;20094;-86
2021/12/28 03:59:09;;;;;;;20.73;18.42;;;9.90;88.10;;;;;;4920296;29;20042;-85
2021/12/28 04:01:35;;;;;;;28.15;20.00;;;9.80;88.10;;;;;;4937535;29;20039;-84
2021/12/28 04:04:02;;;;;;;25.58;19.75;;;9.80;88.10;;;;;;4952188;28;20481;-85
2021/12/28 04:06:35;;;;;;;24.52;18.92;;;9.80;88.20;;;;;;4937322;29;20043;-85
2021/12/28 04:09:03;;;;;;;22.65;19.23;;;9.70;88.20;;;;;;4937072;29;20119;-86
2021/12/28 04:11:29;;;;;;;21.63;18.75;;;9.80;88.30;;;;;;4938097;29;20121;-87
2021/12/28 04:14:02;;;;;;;24.15;19.95;;;9.70;88.30;;;;;;4936639;29;20087;-87
2021/12/28 04:16:29;;;;;;;23.10;18.67;;;9.70;88.20;;;;;;4953498;28;20051;-87
2021/12/28 04:18:55;;;;;;;23.05;19.55;;;9.70;88.20;;;;;;4936454;29;20043;-86
2021/12/28 04:21:21;;;;;;;23.85;19.98;;;9.70;88.20;;;;;;4944818;29;20028;-86
2021/12/28 04:23:47;;;;;;;23.23;19.63;;;9.60;88.10;;;;;;4939493;29;20194;-85
2021/12/28 04:26:14;;;;;;;24.98;19.95;;;9.70;88.40;;;;;;4939272;29;20027;-86
2021/12/28 04:28:40;;;;;;;23.55;19.15;;;9.70;88.40;;;;;;4954578;28;20110;-85
2021/12/28 04:31:06;;;;;;;26.10;18.75;;;9.70;88.20;;;;;;4937173;29;20027;-85
2021/12/28 04:33:32;;;;;;;21.63;17.63;;;9.70;88.30;;;;;;4935191;29;20031;-85
2021/12/28 04:35:58;;;;;;;20.60;18.40;;;9.70;88.20;;;;;;4956323;28;20045;-84
2021/12/28 04:38:24;;;;;;;23.85;17.83;;;9.70;88.10;;;;;;4940914;29;20028;-86
2021/12/28 04:40:49;;;;;;;19.30;16.90;;;9.70;88.00;;;;;;4945538;28;20442;-87
2021/12/28 04:43:16;;;;;;;21.60;17.58;;;9.70;88.00;;;;;;4943003;29;20032;-87
2021/12/28 04:45:41;;;;;;;21.38;17.27;;;9.70;88.00;;;;;;4956401;28;20034;-84
2021/12/28 04:48:08;;;;;;;18.70;16.33;;;9.70;87.90;;;;;;4956357;29;20035;-86
2021/12/28 04:50:38;;;;;;;17.90;16.00;;;9.70;88.20;;;;;;4947113;29;20087;-86
2021/12/28 04:53:10;;;;;;;22.55;17.67;;;9.70;87.80;;;;;;4925301;29;20031;-87
2021/12/28 04:55:44;;;;;;;18.23;16.27;;;9.70;87.90;;;;;;4946894;28;20047;-88
2021/12/28 04:58:15;;;;;;;18.52;16.20;;;9.80;87.90;;;;;;4955044;28;20082;-87
2021/12/28 05:00:44;;;;;;;17.90;15.85;;;9.70;87.70;;;;;;4955289;28;20054;-79
2021/12/28 05:03:11;;;;;;;18.35;15.75;;;9.70;87.60;;;;;;4954187;28;20383;-79
2021/12/28 05:05:40;;;;;;;19.90;17.23;;;9.70;87.80;;;;;;4946755;28;20050;-79
2021/12/28 05:08:06;;;;;;;18.03;15.50;;;9.70;87.50;;;;;;4964700;28;20623;-79
2021/12/28 05:10:33;;;;;;;19.27;16.48;;;9.80;87.70;;;;;;4969509;28;20302;-79
2021/12/28 05:12:58;;;;;;;17.92;16.13;;;9.70;87.60;;;;;;4957518;28;20034;-80
2021/12/28 05:15:24;;;;;;;18.85;16.83;;;9.80;87.70;;;;;;4966679;28;20032;-79
2021/12/28 05:17:50;;;;;;;18.45;15.43;;;9.80;87.60;;;;;;4954758;28;20053;-79
2021/12/28 05:20:16;;;;;;;20.10;16.98;;;9.70;87.50;;;;;;4954784;28;20063;-78
2021/12/28 05:22:41;;;;;;;20.10;16.83;;;9.70;87.60;;;;;;4957102;28;20050;-79
2021/12/28 05:25:08;;;;;;;19.85;16.88;;;9.70;87.70;;;;;;4947747;28;20039;-80
2021/12/28 05:27:33;;;;;;;20.40;16.30;;;9.70;87.60;;;;;;4974154;28;20058;-79
2021/12/28 05:29:59;;;;;;;18.85;15.80;;;9.70;87.50;;;;;;4969676;28;20565;-79
2021/12/28 05:32:25;;;;;;;19.20;16.40;;;9.70;87.70;;;;;;4961836;28;20433;-79
2021/12/28 05:34:53;;;;;;;19.02;15.57;;;9.70;87.80;;;;;;4967300;28;20058;-82
2021/12/28 05:37:19;;;;;;;18.65;15.60;;;9.70;87.70;;;;;;4960640;28;20034;-82
2021/12/28 05:39:45;;;;;;;17.73;15.60;;;9.70;87.80;;;;;;4968524;28;20041;-82
2021/12/28 05:42:11;;;;;;;16.88;15.15;;;9.70;87.70;;;;;;4963015;28;20399;-84
2021/12/28 05:44:40;;;;;;;17.90;15.60;;;9.80;87.80;;;;;;4972880;28;20043;-86
2021/12/28 05:47:06;;;;;;;17.05;15.00;;;9.80;87.70;;;;;;4941986;29;20121;-87
2021/12/28 05:49:32;;;;;;;18.50;16.08;;;9.80;87.80;;;;;;4958584;29;20067;-87
2021/12/28 05:51:58;;;;;;;16.67;14.93;;;9.80;87.80;;;;;;4960835;28;20037;-82
2021/12/28 05:54:24;;;;;;;17.55;15.13;;;9.90;87.70;;;;;;4969042;28;20554;-82
2021/12/28 05:56:49;;;;;;;16.15;14.45;;;9.80;87.40;;;;;;4963184;28;20102;-84
2021/12/28 05:59:15;;;;;;;15.88;13.93;;;9.90;87.60;;;;;;4957453;28;20458;-82
2021/12/28 06:01:41;;;;;;;16.27;14.55;;;9.90;87.50;;;;;;4957036;28;20538;-82
2021/12/28 06:04:07;;;;;;;17.83;14.45;;;9.90;87.20;;;;;;4960284;28;20122;-82
2021/12/28 06:06:34;;;;;;;16.13;13.57;;;9.90;87.20;;;;;;4939941;28;20126;-81
2021/12/28 06:08:59;;;;;;;18.17;13.98;;;9.90;87.10;;;;;;4940505;29;20035;-81
2021/12/28 06:11:25;;;;;;;15.35;13.70;;;9.90;86.90;;;;;;4957238;28;20053;-82
2021/12/28 06:13:51;;;;;;;17.05;14.63;;;9.90;87.10;;;;;;4957482;28;20372;-80
2021/12/28 06:16:17;;;;;;;18.60;14.40;;;9.90;87.20;;;;;;4938991;28;20075;-82
2021/12/28 06:18:42;;;;;;;15.98;14.20;;;9.80;87.30;;;;;;4939309;28;20065;-82
2021/12/28 06:21:08;;;;;;;16.83;14.52;;;9.90;87.30;;;;;;4957216;28;20106;-81
2021/12/28 06:23:34;;;;;;;16.27;14.55;;;9.90;87.10;;;;;;4941278;28;20793;-81
2021/12/28 06:26:00;;;;;;;16.42;13.95;;;9.90;87.10;;;;;;4956236;28;20039;-81
2021/12/28 06:28:27;;;;;;;17.23;14.73;;;9.80;87.00;;;;;;4955327;28;20094;-81
2021/12/28 06:30:56;;;;;;;16.05;14.35;;;9.90;87.00;;;;;;4937973;28;20051;-81
2021/12/28 06:33:23;;;;;;;16.35;14.60;;;9.90;87.10;;;;;;4939316;29;20046;-81
2021/12/28 06:35:49;;;;;;;17.27;15.15;;;9.90;87.10;;;;;;4959729;28;20471;-80
2021/12/28 06:38:16;;;;;;;16.02;14.32;;;9.90;87.20;;;;;;4957432;28;20035;-83
2021/12/28 06:40:42;;;;;;;16.40;13.77;;;9.90;87.20;;;;;;4943828;28;20062;-82
2021/12/28 06:43:08;;;;;;;15.25;13.68;;;9.90;87.20;;;;;;4970853;28;20047;-80
2021/12/28 06:45:34;;;;;;;15.95;13.95;;;9.90;87.20;;;;;;4944455;28;20472;-83
2021/12/28 06:48:00;;;;;;;15.63;12.80;;;9.90;87.30;;;;;;4955168;29;20130;-86
2021/12/28 06:50:26;;;;;;;18.27;14.45;;;10.00;87.60;;;;;;4945014;28;20061;-90
2021/12/28 06:52:51;;;;;;;17.17;13.75;;;10.00;87.00;;;;;;4959773;28;20380;-87
2021/12/28 06:55:17;;;;;;;15.55;13.93;;;10.00;86.80;;;;;;4960227;28;20055;-86
2021/12/28 06:57:43;;;;;;;15.68;14.00;;;10.00;86.90;;;;;;4969348;28;20090;-78
2021/12/28 07:00:13;;;;;;;16.35;13.73;;;10.10;86.90;;;;;;4974672;28;20066;-81
2021/12/28 07:02:39;;;;;;;15.60;13.80;;;10.10;86.80;;;;;;4937998;29;20047;-81
2021/12/28 07:05:06;;;;;;;15.57;13.93;;;10.10;86.60;;;;;;4947228;28;20043;-80
2021/12/28 07:07:32;;;;;;;17.90;14.43;;;10.20;86.10;;;;;;4943885;29;20081;-81
2021/12/28 07:09:58;;;;;;;16.95;15.15;;;10.20;86.10;;;;;;4942385;28;20042;-80
2021/12/28 07:12:23;;;;;;;20.10;15.07;;;10.20;86.10;;;;;;4968317;28;20039;-78
2021/12/28 07:14:49;;;;;;;17.42;15.45;;;10.20;86.20;;;;;;4957730;28;20493;-82
2021/12/28 07:17:15;;;;;;;18.50;15.32;;;10.20;86.20;;;;;;4940164;29;20047;-85
2021/12/28 07:19:41;;;;;;;17.42;15.57;;;10.30;86.20;;;;;;4958389;28;20043;-80
2021/12/28 07:22:07;;;;;;;17.40;14.95;;;10.30;86.10;;;;;;4947547;28;20411;-81
2021/12/28 07:24:32;;;;;;;17.52;15.27;;;10.30;86.00;;;;;;4971479;28;20030;-81
2021/12/28 07:26:59;;;;;;;18.05;15.20;;;10.30;85.90;;;;;;4957116;28;20510;-86
2021/12/28 07:29:24;;;;;;;20.10;15.70;;;10.30;86.00;;;;;;4974142;28;20455;-84
2021/12/28 07:31:51;;;;;;;18.48;15.70;;;10.40;86.30;;;;;;4942643;29;20086;-85
2021/12/28 07:34:17;;;;;;;17.35;15.38;;;10.40;85.70;;;;;;4968244;28;20045;-84
2021/12/28 07:36:43;;;;;;;15.50;13.70;;;10.40;85.60;;;;;;4951674;28;20047;-89
2021/12/28 07:39:08;;;;;;;16.33;14.63;;;10.30;85.50;;;;;;4939819;29;20062;-79
2021/12/28 07:48:03;;;;;;;16.35;14.10;;;10.30;86.00;;;;;;5014211;23;20044;-82
2021/12/28 07:50:30;;;;;;;15.30;13.70;;;10.40;85.90;;;;;;4974180;28;20042;-82
2021/12/28 07:52:55;;;;;;;18.45;14.02;;;10.30;85.90;;;;;;4974595;28;20118;-83
2021/12/28 07:55:23;;;;;;;16.25;14.55;;;10.40;86.00;;;;;;4990349;28;20079;-82
2021/12/28 07:57:49;;;;;;;16.38;14.30;;;10.40;85.80;;;;;;4960346;28;20046;-84
2021/12/28 08:00:18;;;;;;;16.40;14.75;;;10.40;85.90;;;;;;4969508;28;20042;-82
2021/12/28 08:02:45;;;;;;;16.50;14.75;;;10.40;85.70;;;;;;4964322;28;20045;-85
2021/12/28 08:05:13;;;;;;;16.80;14.48;;;10.40;85.80;;;;;;4964039;28;20047;-83
2021/12/28 08:07:40;;;;;;;15.80;13.90;;;10.40;85.70;;;;;;4967765;28;20066;-84
2021/12/28 08:10:06;;;;;;;14.82;13.18;;;10.40;85.70;;;;;;4959975;28;20046;-83
2021/12/28 08:12:32;;;;;;;18.13;14.65;;;10.30;85.80;;;;;;4967333;28;20058;-83
2021/12/28 08:14:58;;;;;;;19.70;16.85;;;10.30;86.00;;;;;;4958900;28;20423;-81
2021/12/28 08:17:26;;;;;;;16.38;14.48;;;10.20;86.10;;;;;;4965124;28;20042;-80
2021/12/28 08:19:52;;;;;;;18.13;14.20;;;10.10;86.80;;;;;;4974289;28;20034;-80
2021/12/28 08:22:17;;;;;;;16.67;14.75;;;10.10;86.80;;;;;;4973030;28;20039;-81
2021/12/28 08:24:43;;;;;;;17.17;15.38;;;10.10;86.80;;;;;;4974452;28;20043;-80
2021/12/28 08:27:09;;;;;;;16.02;14.30;;;10.10;86.80;;;;;;4959085;28;20031;-80
2021/12/28 08:29:34;;;;;;;14.43;12.98;;;10.10;86.90;;;;;;4954553;29;20472;-80
2021/12/28 08:32:00;;;;;;;19.20;16.25;;;10.20;86.80;;;;;;4954855;29;20436;-80
2021/12/28 08:34:26;;;;;;;18.48;16.52;;;10.10;86.60;;;;;;4986200;28;20051;-83
2021/12/28 08:36:51;;;;;;;16.95;15.15;;;10.10;86.80;;;;;;4956272;29;20496;-83
2021/12/28 08:39:17;;;;;;;16.92;15.00;;;10.20;86.80;;;;;;4955947;29;20071;-83
2021/12/28 08:41:43;;;;;;;16.92;15.10;;;10.20;86.90;;;;;;4956388;28;20035;-83
2021/12/28 08:44:09;;;;;;;19.80;15.98;;;10.20;86.80;;;;;;4954358;29;20090;-83
2021/12/28 08:46:35;;;;;;;18.15;15.82;;;10.30;87.00;;;;;;4955128;29;20032;-83
2021/12/28 08:49:01;;;;;;;20.65;15.95;;;10.40;87.00;;;;;;4986285;28;20075;-83
2021/12/28 08:51:26;;;;;;;17.30;15.52;;;10.50;86.90;;;;;;4956699;29;20514;-83
2021/12/28 08:53:52;;;;;;;19.10;16.90;;;10.60;86.60;;;;;;4957029;28;20036;-83
2021/12/28 08:56:18;;;;;;;18.85;16.27;;;10.60;86.40;;;;;;4956444;28;20592;-83
2021/12/28 08:58:44;;;;;;;17.00;15.15;;;10.60;86.20;;;;;;4956854;28;20122;-83
2021/12/28 09:01:11;;;;;;;18.73;16.65;;;10.70;86.00;;;;;;4960339;29;20412;-82
2021/12/28 09:03:36;;;;;;;18.27;16.23;;;10.60;85.70;;;;;;4960315;28;20042;-84
2021/12/28 09:06:02;;;;;;;20.13;16.75;;;10.60;86.00;;;;;;4959424;29;20035;-83
2021/12/28 09:08:29;;;;;;;18.55;16.55;;;10.60;86.10;;;;;;4959091;29;20081;-83
2021/12/28 09:10:54;;;;;;;19.52;16.63;;;10.60;86.30;;;;;;4959441;29;20046;-83
2021/12/28 09:13:20;;;;;;;20.23;17.85;;;10.60;86.30;;;;;;4959893;29;20028;-83
2021/12/28 09:15:46;;;;;;;19.88;17.45;;;10.60;85.90;;;;;;4959817;29;20039;-83
2021/12/28 09:18:12;;;;;;;20.75;18.08;;;10.60;86.40;;;;;;4958351;29;20043;-83
2021/12/28 09:20:38;;;;;;;20.40;17.58;;;10.60;86.40;;;;;;4959239;29;20116;-83
2021/12/28 09:23:05;;;;;;;21.73;18.67;;;10.60;86.40;;;;;;4959629;29;20028;-83
2021/12/28 09:25:31;;;;;;;20.98;18.55;;;10.70;86.40;;;;;;4959198;28;20055;-83
2021/12/28 09:27:56;;;;;;;21.85;19.20;;;10.70;86.20;;;;;;4990220;28;20039;-83
2021/12/28 09:30:23;;;;;;;19.58;17.48;;;10.70;86.10;;;;;;4958872;29;20482;-82
2021/12/28 09:32:49;;;;;;;20.40;18.10;;;10.70;86.00;;;;;;4959596;28;20031;-83
2021/12/28 09:35:16;;;;;;;21.83;19.02;;;10.70;86.20;;;;;;4959334;29;20119;-83
2021/12/28 09:37:41;;;;;;;23.02;18.95;;;10.80;86.30;;;;;;4967217;28;20527;-81
2021/12/28 09:40:10;;;;;;;22.48;18.45;;;10.80;86.10;;;;;;4965824;28;20130;-82
2021/12/28 09:42:37;;;;;;;22.55;19.23;;;10.90;86.00;;;;;;4956569;28;20035;-83
2021/12/28 09:45:05;;;;;;;21.05;18.75;;;10.90;86.00;;;;;;4959574;28;20067;-82
2021/12/28 09:47:30;;;;;;;22.83;19.80;;;10.90;86.00;;;;;;4966900;28;20045;-79
2021/12/28 09:49:57;;;;;;;22.80;19.55;;;11.00;85.90;;;;;;4987377;28;20043;-81
2021/12/28 09:52:23;;;;;;;21.90;19.52;;;11.00;85.60;;;;;;4976726;28;20042;-80
2021/12/28 09:54:49;;;;;;;24.40;19.92;;;11.00;85.60;;;;;;4966716;28;20077;-80
2021/12/28 09:57:16;;;;;;;24.70;20.30;;;11.00;85.60;;;;;;4973816;28;20078;-81
2021/12/28 09:59:42;;;;;;;24.13;19.48;;;11.10;85.70;;;;;;4965193;28;20475;-80
2021/12/28 10:02:10;;;;;;;23.90;19.60;;;11.20;85.60;;;;;;4961390;28;20494;-81
2021/12/28 10:05:05;;;;;;;22.60;19.63;;;11.20;85.50;;;;;;4975597;28;20530;-81
2021/12/28 10:07:33;;;;;;;22.48;20.05;;;11.30;85.50;;;;;;4962187;28;20128;-81
2021/12/28 10:09:59;;;;;;;22.77;19.65;;;11.30;85.00;;;;;;4953782;28;20077;-80
2021/12/28 10:12:35;;;;;;;21.25;17.58;;;11.30;84.40;;;;;;4965552;28;20040;-81
2021/12/28 10:15:03;;;;;;;22.35;18.70;;;11.20;84.60;;;;;;4960037;28;20089;-81
2021/12/28 10:17:31;;;;;;;23.98;20.35;;;11.20;84.90;;;;;;4957908;28;20507;-81
2021/12/28 10:19:59;;;;;;;23.15;20.17;;;11.20;85.00;;;;;;4963935;28;20051;-81
2021/12/28 10:22:36;;;;;;;23.10;19.42;;;11.30;85.00;;;;;;4959105;28;20050;-86
2021/12/28 10:25:21;;;;;;;23.05;19.70;;;11.30;84.80;;;;;;4958521;28;20062;-81
2021/12/28 10:27:59;;;;;;;25.75;21.42;;;11.40;84.70;;;;;;4978672;28;20113;-81
2021/12/28 10:30:33;;;;;;;24.55;20.15;;;11.40;84.60;;;;;;4964402;28;20069;-81
2021/12/28 10:33:06;;;;;;;24.17;20.35;;;11.40;84.60;;;;;;4952292;28;20109;-81
2021/12/28 10:35:36;;;;;;;26.50;21.45;;;11.40;84.40;;;;;;4967336;28;20034;-81
2021/12/28 10:38:05;;;;;;;24.50;21.20;;;11.40;84.20;;;;;;4962375;28;20043;-81
2021/12/28 10:40:36;;;;;;;24.70;20.85;;;11.40;84.30;;;;;;4956081;29;20126;-81
2021/12/28 10:43:05;;;;;;;24.17;20.27;;;11.50;84.20;;;;;;4958126;28;20035;-82
2021/12/28 10:45:39;;;;;;;26.98;21.38;;;11.50;84.10;;;;;;4969620;28;20483;-82
2021/12/28 10:48:08;;;;;;;26.63;21.83;;;11.60;84.10;;;;;;4923978;28;1140309;-82
2021/12/28 10:50:44;;;;;;;25.65;20.58;;;11.60;83.90;;;;;;4959319;28;20043;-81
2021/12/28 10:53:37;;;;;;;25.65;22.63;;;11.60;83.90;;;;;;4951668;28;20042;-81
2021/12/28 10:56:09;;;;;;;29.42;22.98;;;11.60;83.90;;;;;;4955324;28;20031;-81
2021/12/28 10:58:42;;;;;;;29.98;23.60;;;11.60;84.00;;;;;;4965554;28;20106;-81
2021/12/28 11:01:19;;;;;;;29.17;24.02;;;11.70;83.90;;;;;;4954723;28;20142;-81
2021/12/28 11:03:48;;;;;;;29.63;23.73;;;11.70;83.80;;;;;;4956078;28;20436;-81
2021/12/28 11:06:32;;;;;;;29.45;23.63;;;11.70;83.70;;;;;;4957939;28;20043;-81
2021/12/28 11:09:15;;;;;;;28.95;24.38;;;11.70;83.40;;;;;;4964661;28;20043;-81
2021/12/28 11:11:41;;;;;;;30.50;24.23;;;11.80;83.40;;;;;;4952269;28;20082;-81
2021/12/28 11:14:10;;;;;;;26.75;22.42;;;11.80;83.20;;;;;;4959999;28;20491;-81
2021/12/28 11:16:37;;;;;;;35.78;29.33;;;11.80;82.90;;;;;;4966726;28;20031;-81
2021/12/28 11:19:06;;;;;;;39.17;31.73;;;11.80;82.90;;;;;;4960721;28;20371;-81
2021/12/28 11:21:39;;;;;;;30.42;25.73;;;11.70;83.50;;;;;;4964492;28;20031;-81
2021/12/28 11:24:10;;;;;;;32.65;24.92;;;11.70;83.70;;;;;;4959215;28;20042;-81
2021/12/28 11:26:42;;;;;;;30.75;25.95;;;11.60;83.50;;;;;;4961754;28;20046;-81
2021/12/28 11:29:09;;;;;;;24.35;21.00;;;11.60;83.70;;;;;;4974375;28;20494;-81
2021/12/28 11:31:55;;;;;;;26.80;22.40;;;11.60;84.00;;;;;;4966728;28;20035;-81
2021/12/28 11:34:22;;;;;;;30.67;25.60;;;11.70;84.10;;;;;;4956804;28;20039;-82
2021/12/28 11:37:09;;;;;;;26.40;22.85;;;11.70;84.50;;;;;;4979503;28;20484;-82
2021/12/28 11:39:40;;;;;;;27.05;22.58;;;11.70;84.60;;;;;;4944245;28;20046;-82
2021/12/28 11:42:08;;;;;;;24.42;21.40;;;11.80;84.50;;;;;;4945370;28;20053;-81
2021/12/28 11:44:37;;;;;;;27.70;24.50;;;12.00;84.30;;;;;;4974359;28;20046;-81
2021/12/28 11:47:06;;;;;;;22.85;20.08;;;12.00;83.20;;;;;;4972583;28;20117;-81
2021/12/28 11:49:32;;;;;;;22.80;19.30;;;12.00;83.50;;;;;;4967039;28;20462;-81
2021/12/28 11:52:01;;;;;;;20.83;18.25;;;12.00;83.30;;;;;;4963327;28;20043;-81
2021/12/28 11:54:31;;;;;;;20.35;17.55;;;12.00;82.20;;;;;;4957881;28;20035;-80
2021/12/28 11:57:04;;;;;;;21.98;18.10;;;12.10;82.80;;;;;;4951604;29;20039;-81
2021/12/28 11:59:32;;;;;;;19.70;17.50;;;12.10;82.00;;;;;;4955989;28;20039;-81
2021/12/28 12:02:02;;;;;;;18.00;16.10;;;12.10;82.30;;;;;;4955780;28;20083;-82
2021/12/28 12:04:33;;;;;;;18.23;16.23;;;12.10;82.50;;;;;;4962004;28;20038;-79
2021/12/28 12:07:12;;;;;;;16.35;13.93;;;12.00;82.40;;;;;;4949331;28;20480;-81
2021/12/28 12:09:50;;;;;;;18.30;16.20;;;12.10;85.10;;;;;;4944033;29;20491;-81
2021/12/28 12:12:19;;;;;;;25.45;22.58;;;12.30;84.10;;;;;;4962606;28;20086;-81
2021/12/28 12:14:54;;;;;;;18.13;16.17;;;12.20;81.60;;;;;;4974770;28;20086;-80
2021/12/28 12:17:34;;;;;;;18.00;15.85;;;12.20;82.10;;;;;;4965696;28;20039;-80
2021/12/28 12:20:09;;;;;;;16.27;14.57;;;12.00;82.10;;;;;;4986651;28;20039;-80
2021/12/28 12:22:39;;;;;;;16.35;14.65;;;12.00;82.20;;;;;;4969287;28;20458;-81
2021/12/28 12:25:12;;;;;;;19.02;17.02;;;12.00;82.30;;;;;;4973257;28;20034;-80
2021/12/28 12:27:58;;;;;;;19.17;17.17;;;12.00;81.90;;;;;;4960365;28;20499;-81
2021/12/28 12:30:42;;;;;;;17.40;15.07;;;11.90;81.70;;;;;;4959595;28;20032;-81
2021/12/28 12:33:13;;;;;;;16.77;15.00;;;11.90;82.30;;;;;;4953234;29;20043;-81
2021/12/28 12:35:43;;;;;;;17.77;15.48;;;11.90;82.40;;;;;;4955159;29;20091;-84
2021/12/28 12:38:14;;;;;;;16.80;15.07;;;11.90;82.20;;;;;;4956840;28;20364;-84
2021/12/28 12:41:02;;;;;;;18.52;16.55;;;12.00;82.20;;;;;;4987583;28;20043;-84
2021/12/28 12:46:07;;;;;;;19.00;16.27;;;12.00;82.20;;;;;;4956435;29;20043;-84